JST734 YMLT-YMML
Flight info
| Callsign | JST734 |
|---|---|
| Flight time | 0h 46m |
| Altitude | 32000 |
| Route | FLIKI H215 RAZZI W687 ML |
| Aircraft | A320/M-SDE3FGHIRWY/LB1 |
Departure
| Time | 2026-05-04 21:34 |
|---|---|
| Airport | Launceston Airport (YMLT) |
Arrival
| Time | 2026-05-04 22:20 |
|---|---|
| Airport | Melbourne Airport (YMML) |
| Time | Latitude | Longitude | Altitude | Speed | Heading |
|---|---|---|---|---|---|
| 2026-05-04 21:09 | -41.54258 | 147.20624 | 566 ft | 0 kts | 293° |
| 2026-05-04 21:28 | -41.54253 | 147.20619 | 571 ft | 2 kts | 318° |
| 2026-05-04 21:28 | -41.54245 | 147.20625 | 569 ft | 1 kts | 31° |
| 2026-05-04 21:29 | -41.54245 | 147.20652 | 565 ft | 5 kts | 94° |
| 2026-05-04 21:29 | -41.54267 | 147.20701 | 569 ft | 8 kts | 134° |
| 2026-05-04 21:29 | -41.54320 | 147.20751 | 568 ft | 11 kts | 147° |
| 2026-05-04 21:29 | -41.54395 | 147.20814 | 564 ft | 15 kts | 148° |
| 2026-05-04 21:30 | -41.54490 | 147.20895 | 566 ft | 18 kts | 147° |
| 2026-05-04 21:30 | -41.54603 | 147.20993 | 566 ft | 21 kts | 147° |
| 2026-05-04 21:30 | -41.54709 | 147.21082 | 564 ft | 15 kts | 148° |
| 2026-05-04 21:30 | -41.54810 | 147.21168 | 565 ft | 19 kts | 147° |
| 2026-05-04 21:31 | -41.55070 | 147.21389 | 561 ft | 25 kts | 148° |
| 2026-05-04 21:31 | -41.55192 | 147.21494 | 564 ft | 15 kts | 146° |
| 2026-05-04 21:31 | -41.55228 | 147.21548 | 568 ft | 8 kts | 107° |
| 2026-05-04 21:32 | -41.55226 | 147.21629 | 559 ft | 9 kts | 77° |
| 2026-05-04 21:32 | -41.55182 | 147.21678 | 560 ft | 9 kts | 346° |
| 2026-05-04 21:32 | -41.55138 | 147.21640 | 563 ft | 0 kts | 326° |
| 2026-05-04 21:32 | -41.55132 | 147.21635 | 561 ft | 0 kts | 326° |
| 2026-05-04 21:33 | -41.55099 | 147.21606 | 564 ft | 24 kts | 327° |
| 2026-05-04 21:33 | -41.54745 | 147.21300 | 565 ft | 94 kts | 327° |
| 2026-05-04 21:33 | -41.54042 | 147.20700 | 570 ft | 143 kts | 328° |
| 2026-05-04 21:33 | -41.53170 | 147.19897 | 978 ft | 142 kts | 322° |
| 2026-05-04 21:34 | -41.52326 | 147.19479 | 1675 ft | 133 kts | 5° |
| 2026-05-04 21:34 | -41.51515 | 147.20133 | 1947 ft | 146 kts | 67° |
| 2026-05-04 21:34 | -41.51395 | 147.20533 | 2156 ft | 139 kts | 76° |
| 2026-05-04 21:36 | -41.42102 | 147.18815 | 5820 ft | 280 kts | 332° |
| 2026-05-04 21:36 | -41.40309 | 147.17723 | 6777 ft | 285 kts | 333° |
| 2026-05-04 21:36 | -41.38484 | 147.16658 | 7723 ft | 288 kts | 334° |
| 2026-05-04 21:37 | -41.36638 | 147.15603 | 8685 ft | 291 kts | 334° |
| 2026-05-04 21:37 | -41.34764 | 147.14539 | 9655 ft | 294 kts | 334° |
| 2026-05-04 21:37 | -41.32859 | 147.13459 | 10364 ft | 306 kts | 334° |
| 2026-05-04 21:37 | -41.30853 | 147.12319 | 10705 ft | 327 kts | 334° |
| 2026-05-04 21:38 | -41.28700 | 147.11093 | 11398 ft | 336 kts | 334° |
| 2026-05-04 21:38 | -41.26563 | 147.09877 | 12210 ft | 341 kts | 334° |
| 2026-05-04 21:38 | -41.24372 | 147.08633 | 13060 ft | 345 kts | 334° |
| 2026-05-04 21:38 | -41.22150 | 147.07372 | 13892 ft | 350 kts | 334° |
| 2026-05-04 21:39 | -41.19887 | 147.06088 | 14646 ft | 354 kts | 334° |
| 2026-05-04 21:39 | -41.17611 | 147.04798 | 15396 ft | 358 kts | 333° |
| 2026-05-04 21:39 | -41.15310 | 147.03492 | 16148 ft | 362 kts | 333° |
| 2026-05-04 21:39 | -41.12972 | 147.02163 | 16898 ft | 366 kts | 333° |
| 2026-05-04 21:40 | -41.10611 | 147.00824 | 17638 ft | 371 kts | 333° |
| 2026-05-04 21:40 | -41.08227 | 146.99478 | 18356 ft | 375 kts | 333° |
| 2026-05-04 21:40 | -41.05811 | 146.98116 | 18995 ft | 380 kts | 333° |
| 2026-05-04 21:40 | -41.03369 | 146.96738 | 19636 ft | 386 kts | 333° |
| 2026-05-04 21:41 | -41.00882 | 146.95328 | 20305 ft | 391 kts | 333° |
| 2026-05-04 21:41 | -40.98352 | 146.93895 | 20955 ft | 397 kts | 333° |
| 2026-05-04 21:41 | -40.95790 | 146.92446 | 21572 ft | 403 kts | 333° |
| 2026-05-04 21:41 | -40.93228 | 146.90998 | 22172 ft | 408 kts | 333° |
| 2026-05-04 21:42 | -40.90592 | 146.89510 | 22784 ft | 414 kts | 333° |
| 2026-05-04 21:42 | -40.87930 | 146.88015 | 23438 ft | 420 kts | 333° |
| 2026-05-04 21:42 | -40.85227 | 146.86505 | 24011 ft | 424 kts | 333° |
| 2026-05-04 21:42 | -40.82487 | 146.84977 | 24615 ft | 428 kts | 333° |
| 2026-05-04 21:43 | -40.79744 | 146.83447 | 25232 ft | 431 kts | 333° |
| 2026-05-04 21:43 | -40.76986 | 146.81904 | 25845 ft | 433 kts | 332° |
| 2026-05-04 21:43 | -40.74197 | 146.80340 | 26436 ft | 436 kts | 332° |
| 2026-05-04 21:43 | -40.71391 | 146.78762 | 27031 ft | 439 kts | 332° |
| 2026-05-04 21:44 | -40.68573 | 146.77180 | 27622 ft | 442 kts | 332° |
| 2026-05-04 21:44 | -40.65723 | 146.75587 | 28210 ft | 445 kts | 332° |
| 2026-05-04 21:44 | -40.62862 | 146.73995 | 28772 ft | 448 kts | 332° |
| 2026-05-04 21:44 | -40.59987 | 146.72400 | 29307 ft | 450 kts | 332° |
| 2026-05-04 21:45 | -40.57091 | 146.70790 | 29835 ft | 453 kts | 332° |
| 2026-05-04 21:45 | -40.54188 | 146.69181 | 30280 ft | 455 kts | 332° |
| 2026-05-04 21:45 | -40.51252 | 146.67550 | 30725 ft | 457 kts | 332° |
| 2026-05-04 21:45 | -40.48327 | 146.65929 | 31163 ft | 458 kts | 332° |
| 2026-05-04 21:46 | -40.45376 | 146.64294 | 31613 ft | 459 kts | 332° |
| 2026-05-04 21:46 | -40.42453 | 146.62678 | 31899 ft | 457 kts | 332° |
| 2026-05-04 21:46 | -40.39531 | 146.61065 | 31950 ft | 447 kts | 332° |
| 2026-05-04 21:46 | -40.36722 | 146.59520 | 31952 ft | 434 kts | 332° |
| 2026-05-04 21:47 | -40.33947 | 146.57992 | 31953 ft | 429 kts | 332° |
| 2026-05-04 21:47 | -40.28473 | 146.54967 | 31957 ft | 426 kts | 332° |
| 2026-05-04 21:48 | -40.23046 | 146.51962 | 31970 ft | 426 kts | 332° |
| 2026-05-04 21:48 | -40.17591 | 146.48963 | 31972 ft | 425 kts | 332° |
| 2026-05-04 21:49 | -40.12143 | 146.45974 | 31975 ft | 425 kts | 332° |
| 2026-05-04 21:49 | -40.06685 | 146.42991 | 31984 ft | 425 kts | 332° |
| 2026-05-04 21:50 | -40.01219 | 146.40000 | 31988 ft | 425 kts | 332° |
| 2026-05-04 21:50 | -39.95748 | 146.37072 | 31996 ft | 425 kts | 333° |
| 2026-05-04 21:51 | -39.90239 | 146.34274 | 32001 ft | 425 kts | 334° |
| 2026-05-04 21:51 | -39.84746 | 146.31493 | 32002 ft | 424 kts | 333° |
| 2026-05-04 21:52 | -39.79246 | 146.28677 | 32011 ft | 423 kts | 333° |
| 2026-05-04 21:52 | -39.73810 | 146.25890 | 32013 ft | 423 kts | 333° |
| 2026-05-04 21:53 | -39.68332 | 146.23089 | 32023 ft | 422 kts | 333° |
| 2026-05-04 21:53 | -39.62873 | 146.20307 | 32026 ft | 422 kts | 333° |
| 2026-05-04 21:54 | -39.57404 | 146.17522 | 32032 ft | 421 kts | 333° |
| 2026-05-04 21:54 | -39.51966 | 146.14743 | 32035 ft | 421 kts | 333° |
| 2026-05-04 21:55 | -39.46508 | 146.11970 | 32040 ft | 420 kts | 333° |
| 2026-05-04 21:55 | -39.41063 | 146.09219 | 32042 ft | 420 kts | 333° |
| 2026-05-04 21:56 | -39.35641 | 146.06478 | 32052 ft | 419 kts | 333° |
| 2026-05-04 21:56 | -39.30216 | 146.03740 | 31921 ft | 415 kts | 333° |
| 2026-05-04 21:56 | -39.27543 | 146.02398 | 31662 ft | 407 kts | 333° |
| 2026-05-04 21:57 | -39.24919 | 146.01078 | 31268 ft | 404 kts | 333° |
| 2026-05-04 21:57 | -39.22315 | 145.99766 | 30837 ft | 402 kts | 333° |
| 2026-05-04 21:57 | -39.19705 | 145.98450 | 30412 ft | 400 kts | 333° |
| 2026-05-04 21:57 | -39.17128 | 145.97151 | 29970 ft | 399 kts | 333° |
| 2026-05-04 21:58 | -39.14556 | 145.95857 | 29552 ft | 396 kts | 333° |
| 2026-05-04 21:58 | -39.12023 | 145.94590 | 29153 ft | 393 kts | 333° |
| 2026-05-04 21:58 | -39.09452 | 145.93303 | 28766 ft | 390 kts | 333° |
| 2026-05-04 21:58 | -39.06923 | 145.92039 | 28383 ft | 388 kts | 333° |
| 2026-05-04 21:59 | -39.04420 | 145.90787 | 27995 ft | 386 kts | 333° |
| 2026-05-04 21:59 | -39.01918 | 145.89533 | 27603 ft | 384 kts | 333° |
| 2026-05-04 21:59 | -38.99471 | 145.88306 | 27216 ft | 382 kts | 333° |
| 2026-05-04 21:59 | -38.96995 | 145.87067 | 26825 ft | 380 kts | 333° |
| 2026-05-04 22:00 | -38.94535 | 145.85838 | 26421 ft | 379 kts | 333° |
| 2026-05-04 22:00 | -38.92048 | 145.84597 | 26013 ft | 377 kts | 333° |
| 2026-05-04 22:00 | -38.89609 | 145.83381 | 25600 ft | 376 kts | 333° |
| 2026-05-04 22:00 | -38.87206 | 145.82184 | 25189 ft | 375 kts | 333° |
| 2026-05-04 22:01 | -38.84774 | 145.80975 | 24758 ft | 374 kts | 333° |
| 2026-05-04 22:01 | -38.82357 | 145.79769 | 24329 ft | 373 kts | 333° |
| 2026-05-04 22:01 | -38.79920 | 145.78553 | 23897 ft | 373 kts | 333° |
| 2026-05-04 22:01 | -38.77513 | 145.77357 | 23427 ft | 373 kts | 333° |
| 2026-05-04 22:02 | -38.75900 | 145.76556 | 23120 ft | 372 kts | 333° |
| 2026-05-04 22:02 | -38.73501 | 145.75367 | 22684 ft | 369 kts | 333° |
| 2026-05-04 22:02 | -38.71112 | 145.74184 | 22253 ft | 367 kts | 333° |
| 2026-05-04 22:02 | -38.68740 | 145.73008 | 21827 ft | 364 kts | 333° |
| 2026-05-04 22:03 | -38.66393 | 145.71847 | 21400 ft | 363 kts | 333° |
| 2026-05-04 22:03 | -38.64032 | 145.70681 | 20968 ft | 361 kts | 333° |
| 2026-05-04 22:03 | -38.61699 | 145.69529 | 20548 ft | 360 kts | 333° |
| 2026-05-04 22:03 | -38.59370 | 145.68374 | 20112 ft | 359 kts | 333° |
| 2026-05-04 22:04 | -38.57035 | 145.67217 | 19686 ft | 358 kts | 333° |
| 2026-05-04 22:04 | -38.54711 | 145.66071 | 19256 ft | 357 kts | 333° |
| 2026-05-04 22:04 | -38.52394 | 145.64934 | 18836 ft | 357 kts | 334° |
| 2026-05-04 22:04 | -38.50078 | 145.63798 | 18408 ft | 357 kts | 334° |
| 2026-05-04 22:05 | -38.47760 | 145.62660 | 17941 ft | 355 kts | 333° |
| 2026-05-04 22:05 | -38.45577 | 145.61286 | 17531 ft | 348 kts | 326° |
| 2026-05-04 22:05 | -38.43457 | 145.59814 | 17132 ft | 345 kts | 326° |
| 2026-05-04 22:05 | -38.41358 | 145.58363 | 16738 ft | 342 kts | 326° |
| 2026-05-04 22:06 | -38.39280 | 145.56931 | 16347 ft | 340 kts | 326° |
| 2026-05-04 22:06 | -38.38595 | 145.56461 | 16218 ft | 339 kts | 326° |
| 2026-05-04 22:07 | -38.31016 | 145.51258 | 14792 ft | 331 kts | 326° |
| 2026-05-04 22:07 | -38.28996 | 145.49864 | 14401 ft | 329 kts | 326° |
| 2026-05-04 22:07 | -38.26978 | 145.48475 | 14022 ft | 328 kts | 327° |
| 2026-05-04 22:07 | -38.24972 | 145.47099 | 13600 ft | 327 kts | 327° |
| 2026-05-04 22:08 | -38.22987 | 145.45739 | 13224 ft | 324 kts | 327° |
| 2026-05-04 22:08 | -38.21028 | 145.44397 | 12845 ft | 322 kts | 327° |
| 2026-05-04 22:08 | -38.19041 | 145.43034 | 12473 ft | 319 kts | 327° |
| 2026-05-04 22:08 | -38.17095 | 145.41702 | 12097 ft | 317 kts | 327° |
| 2026-05-04 22:09 | -38.15167 | 145.40385 | 11719 ft | 315 kts | 327° |
| 2026-05-04 22:09 | -38.13247 | 145.39074 | 11351 ft | 313 kts | 327° |
| 2026-05-04 22:09 | -38.11335 | 145.37767 | 10983 ft | 311 kts | 327° |
| 2026-05-04 22:09 | -38.09431 | 145.36468 | 10612 ft | 309 kts | 327° |
| 2026-05-04 22:10 | -38.07543 | 145.35180 | 10250 ft | 307 kts | 327° |
| 2026-05-04 22:10 | -38.05663 | 145.33899 | 9983 ft | 302 kts | 328° |
| 2026-05-04 22:10 | -38.03841 | 145.32659 | 9770 ft | 294 kts | 327° |
| 2026-05-04 22:10 | -38.02201 | 145.31209 | 9185 ft | 284 kts | 313° |
| 2026-05-04 22:11 | -38.00943 | 145.29311 | 8726 ft | 278 kts | 298° |
| 2026-05-04 22:11 | -38.00042 | 145.27201 | 8366 ft | 276 kts | 294° |
| 2026-05-04 22:11 | -37.99159 | 145.25042 | 8038 ft | 274 kts | 294° |
| 2026-05-04 22:11 | -37.98283 | 145.22909 | 7727 ft | 271 kts | 294° |
| 2026-05-04 22:12 | -37.97415 | 145.20798 | 7405 ft | 269 kts | 295° |
| 2026-05-04 22:12 | -37.96546 | 145.18685 | 7069 ft | 267 kts | 295° |
| 2026-05-04 22:12 | -37.95689 | 145.16594 | 6743 ft | 266 kts | 295° |
| 2026-05-04 22:12 | -37.94850 | 145.14553 | 6385 ft | 265 kts | 295° |
| 2026-05-04 22:13 | -37.93997 | 145.12480 | 6034 ft | 263 kts | 295° |
| 2026-05-04 22:13 | -37.93153 | 145.10430 | 5696 ft | 261 kts | 295° |
| 2026-05-04 22:13 | -37.92319 | 145.08403 | 5379 ft | 259 kts | 295° |
| 2026-05-04 22:13 | -37.91492 | 145.06396 | 5105 ft | 255 kts | 295° |
| 2026-05-04 22:14 | -37.90665 | 145.04386 | 4756 ft | 254 kts | 295° |
| 2026-05-04 22:14 | -37.89858 | 145.02427 | 4389 ft | 255 kts | 295° |
| 2026-05-04 22:14 | -37.89045 | 145.00456 | 4095 ft | 252 kts | 295° |
| 2026-05-04 22:14 | -37.88246 | 144.98528 | 3960 ft | 244 kts | 295° |
| 2026-05-04 22:15 | -37.87470 | 144.96656 | 3858 ft | 234 kts | 295° |
| 2026-05-04 22:15 | -37.86731 | 144.94876 | 3758 ft | 224 kts | 295° |
| 2026-05-04 22:15 | -37.86012 | 144.93141 | 3667 ft | 214 kts | 295° |
| 2026-05-04 22:15 | -37.85342 | 144.91525 | 3573 ft | 205 kts | 295° |
| 2026-05-04 22:16 | -37.84696 | 144.89966 | 3489 ft | 194 kts | 295° |
| 2026-05-04 22:16 | -37.84083 | 144.88491 | 3395 ft | 184 kts | 296° |
| 2026-05-04 22:16 | -37.83266 | 144.87272 | 3347 ft | 177 kts | 320° |
| 2026-05-04 22:16 | -37.82147 | 144.86641 | 3100 ft | 181 kts | 343° |
| 2026-05-04 22:17 | -37.80897 | 144.86406 | 2836 ft | 180 kts | 346° |
| 2026-05-04 22:17 | -37.79656 | 144.86175 | 2578 ft | 179 kts | 345° |
| 2026-05-04 22:17 | -37.78441 | 144.85946 | 2339 ft | 173 kts | 346° |
| 2026-05-04 22:17 | -37.77327 | 144.85743 | 2123 ft | 152 kts | 346° |
| 2026-05-04 22:18 | -37.76315 | 144.85557 | 1917 ft | 141 kts | 345° |
| 2026-05-04 22:18 | -37.75364 | 144.85380 | 1733 ft | 137 kts | 345° |
| 2026-05-04 22:18 | -37.74428 | 144.85205 | 1539 ft | 135 kts | 345° |
| 2026-05-04 22:18 | -37.73508 | 144.85034 | 1351 ft | 133 kts | 346° |
| 2026-05-04 22:19 | -37.72587 | 144.84862 | 1160 ft | 134 kts | 346° |
| 2026-05-04 22:19 | -37.71704 | 144.84694 | 987 ft | 133 kts | 348° |
| 2026-05-04 22:19 | -37.70788 | 144.84533 | 733 ft | 131 kts | 347° |
| 2026-05-04 22:19 | -37.69894 | 144.84354 | 547 ft | 131 kts | 347° |
| 2026-05-04 22:20 | -37.69011 | 144.84190 | 418 ft | 130 kts | 348° |
| 2026-05-04 22:20 | -37.68135 | 144.84005 | 356 ft | 114 kts | 353° |
| 2026-05-04 22:20 | -37.67529 | 144.83903 | 372 ft | 64 kts | 352° |
| 2026-05-04 22:20 | -37.67226 | 144.83846 | 381 ft | 36 kts | 352° |
| 2026-05-04 22:21 | -37.67034 | 144.83837 | 387 ft | 26 kts | 7° |
| 2026-05-04 22:21 | -37.66913 | 144.83877 | 391 ft | 15 kts | 20° |
| 2026-05-04 22:21 | -37.66845 | 144.83911 | 391 ft | 9 kts | 21° |
| 2026-05-04 22:21 | -37.66795 | 144.83935 | 391 ft | 5 kts | 21° |
| 2026-05-04 22:22 | -37.66762 | 144.83951 | 393 ft | 5 kts | 24° |
| 2026-05-04 22:22 | -37.66738 | 144.83979 | 393 ft | 6 kts | 53° |
| 2026-05-04 22:22 | -37.66721 | 144.84032 | 394 ft | 7 kts | 74° |
| 2026-05-04 22:22 | -37.66720 | 144.84101 | 389 ft | 9 kts | 105° |
| 2026-05-04 22:23 | -37.66767 | 144.84179 | 393 ft | 13 kts | 145° |
| 2026-05-04 22:23 | -37.66879 | 144.84210 | 389 ft | 19 kts | 171° |
| 2026-05-04 22:23 | -37.67028 | 144.84235 | 387 ft | 24 kts | 173° |
| 2026-05-04 22:23 | -37.67181 | 144.84266 | 384 ft | 16 kts | 171° |
| 2026-05-04 22:24 | -37.67304 | 144.84290 | 380 ft | 17 kts | 171° |
| 2026-05-04 22:24 | -37.67392 | 144.84306 | 380 ft | 9 kts | 172° |
| 2026-05-04 22:24 | -37.67449 | 144.84316 | 378 ft | 10 kts | 172° |
| 2026-05-04 22:24 | -37.67474 | 144.84320 | 377 ft | 4 kts | 172° |
| 2026-05-04 22:25 | -37.67516 | 144.84330 | 376 ft | 8 kts | 167° |
| 2026-05-04 22:25 | -37.67582 | 144.84343 | 374 ft | 13 kts | 172° |
| 2026-05-04 22:25 | -37.67691 | 144.84361 | 370 ft | 19 kts | 172° |
| 2026-05-04 22:25 | -37.67809 | 144.84384 | 365 ft | 14 kts | 165° |
| 2026-05-04 22:26 | -37.67827 | 144.84503 | 368 ft | 16 kts | 83° |
| 2026-05-04 22:26 | -37.67791 | 144.84595 | 370 ft | 10 kts | 13° |
| 2026-05-04 22:26 | -37.67743 | 144.84647 | 369 ft | 11 kts | 76° |
| 2026-05-04 22:26 | -37.67733 | 144.84739 | 372 ft | 10 kts | 82° |
| 2026-05-04 22:27 | -37.67724 | 144.84810 | 374 ft | 7 kts | 81° |
| 2026-05-04 22:27 | -37.67719 | 144.84844 | 375 ft | 0 kts | 81° |
| 2026-05-04 22:27 | -37.67718 | 144.84852 | 375 ft | 1 kts | 73° |
| 2026-05-04 22:27 | -37.67709 | 144.84858 | 376 ft | 3 kts | 29° |
| 2026-05-04 22:28 | -37.67669 | 144.84854 | 377 ft | 7 kts | 354° |
| 2026-05-04 22:28 | -37.67626 | 144.84847 | 379 ft | 4 kts | 351° |
| 2026-05-04 22:28 | -37.67622 | 144.84847 | 380 ft | 0 kts | 351° |